Terminal Aerodrome Forecast
Issued by NWS

Home | Current Version | Previous Version | Text Only | Print | Product List | Glossary On
Versions: 1 2 3 4 5 6 7 8 9 10 11 12 13 14 15
000
FTUS46 KLOX 230500
TAFVNY
TAF
KVNY 230530Z 2306/2406 VRB05KT P6SM SCT250
     FM231400 35010G20KT P6SM SKC
     FM231700 36016G26KT P6SM SKC
     FM232000 36020G30KT P6SM SKC
     FM240100 36015KT P6SM SKC
     FM240500 VRB05KT 6SM BR SKC=

USA.gov is the U.S. government's official web portal to all federal, state and local government web resources and services.